LEPADTMB

Guest
Details From LEPA - Palma De Mallorca
To DTMB - Monastir Habib Bourguiba Intl
Flight Number -
Tags generated
Created
Modified
Stats Distance 475 nm / 880 km
Max Altitude 35,000 ft / 10,668 m
Waypoints 7
Social Downloads 1
Likes 0
Share VATSIM

Download

Looking for another format? Having issues loading an existing format? Contact us
Advertisement - Login to hide

Notes

Basic altitude profile: - Ascent Rate: 2500ft/min - Ascent Speed: 250kts - Cruise Altitude: 35000ft - Cruise Speed: 420kts - Descent Rate: 1500ft/min - Descent Speed: 250kts Options: - Use NATs: yes - Use PACOTS: yes - Use low airways: yes - Use high airways: yes

Route

LEPA LUXUR UM134 ANB UA411 LABIP DTMB

ID Type Via Altitude (ft/m) Position (lat/lon) Dist (leg/tot) Name
O LEPA APT - 0 / 0 39.55254 / 2.73496 - / 0 nm Palma De Mallorca
LUXUR FIX - 29,900 / 9,114 38.21333 / 3.42194 86 / 86 nm
PAGRE FIX UM134 (AWY-HI) 35,000 / 10,668 37.71000 / 5.00000 80 / 167 nm
ANB VOR UM134 (AWY-HI) 35,000 / 10,668 36.81667 / 7.80000 144 / 311 nm ANNABA VOR-DME
MORJA FIX UA411 (AWY-HI) 25,300 / 7,711 36.83444 / 8.65000 40 / 352 nm
LABIP FIX UA411 (AWY-HI) 23,500 / 7,163 36.82722 / 8.97500 15 / 367 nm
O DTMB APT - 0 / 0 35.75784 / 10.75403 107 / 475 nm Monastir Habib Bourguiba Intl

Altitude Profile

Advertisement - Login to hide

Weather


0- 5 10 15 20 25 30 35+ Temperature / °C

Clouds and Precipitation
Forecast for 2018-12-13 00:00 UTC. Updated 5 hours ago

Ground ~20,000 ft ~40,000 ft Winds

LEPA

Details ICAO LEPA (PMI)
Name Palma de Mallorca
Region Spain
Timezone Europe/Madrid (UTC+1.0)
Stats Elevation 25 ft / 8 m (AMSL)
Location 39.551700° 2.738890°
Runways 2
Magnetic Variation 1.095° E

METAR

LEPA 130200Z 36003KT 9999 FEW018 08/08 Q1013 NOSIG

Decode

TAF

TAF LEPA 122300Z 1300/1324 VRB04KT 9999 SCT020 TX17/1312Z TN07/1306Z BECMG 1306/1308 24012KT PROB30 TEMPO 1302/1306 3000 BR BKN012 PROB40 TEMPO 1308/1318 24015G25KT PROB40 TEMPO 1312/1324 4000 SHRA FEW020TCU BKN025 BECMG 1318/1320 29012KT

Decode

Departure Runways

ID Width Length Bearing (true/mag) Surface Threshold Overrun Markings Lighting
06L 148 ft / 45 m 10,738 ft / 3,273 m 58.43° / 57.33° ASPHALT 0 ft / 0 m 0 ft / 0 m PREC-APP CENTERLINE EDGE THRESHOLD CALVERT
06R 148 ft / 45 m 9,852 ft / 3,003 m 58.44° / 57.35° ASPHALT 1,332 ft / 406 m 0 ft / 0 m PREC-APP CENTERLINE EDGE THRESHOLD
24L 148 ft / 45 m 9,852 ft / 3,003 m 238.46° / 237.37° ASPHALT 0 ft / 0 m 0 ft / 0 m PREC-APP CENTERLINE EDGE THRESHOLD ALSF-II
24R 148 ft / 45 m 10,738 ft / 3,273 m 238.45° / 237.36° ASPHALT 436 ft / 133 m 171 ft / 52 m PREC-APP CENTERLINE EDGE THRESHOLD CALVERT

DTMB

Details ICAO DTMB (MIR)
Name Monastir Habib Bourguiba Intl
Region Tunisia
Timezone Africa/Tunis (UTC+1.0)
Stats Elevation 9 ft / 3 m (AMSL)
Location 35.757800° 10.754000°
Runways 1
Magnetic Variation 2.527° E

METAR

DTMB 130200Z 25003KT 6000 NSC 10/07 Q1017 NOSIG

Decode

TAF

TAF DTMB 121700Z 1218/1318 20004KT 9999 FEW030= TAF DTTA 121700Z 1218/1318 21004KT 9999 SCT026

Decode

Destination Runways

ID Width Length Bearing (true/mag) Surface Threshold Overrun Markings Lighting
07 148 ft / 45 m 9,692 ft / 2,954 m 73.54° / 71.01° ASPHALT 0 ft / 0 m 164 ft / 50 m PREC-APP EDGE THRESHOLD SSALF REIL-OMNI
25 148 ft / 45 m 9,692 ft / 2,954 m 253.56° / 251.03° ASPHALT 0 ft / 0 m 171 ft / 52 m PREC-APP EDGE THRESHOLD REIL-OMNI

Approach Navaids

Runway Type Ident Frequency Range Bearing (true/mag) Slope Elevation
07 OM OM - - 73.55° / 71.02 ° - 9 ft / 3 m (AMSL)
07 MM MM - - 73.55° / 71.02 ° - 9 ft / 3 m (AMSL)
07 LOC-ILS MIS 109.90 MHz 18 nm / 33 km 73.57° / 71.04 ° - 9 ft / 3 m (AMSL)
07 GS MIS 109.90 MHz 10 nm / 19 km 74.10° / 71.58 ° 3.00° 9 ft / 3 m (AMSL)

Popular Alternatives